Time;durP1;ratioP1;P1;durP2;ratioP2;P2;SDS_P1;SDS_P2;PMS_P1;PMS_P2;Temp;Humidity;BMP_temperature;BMP_pressure;BME280_temperature;BME280_humidity;BME280_pressure;Samples;Min_cycle;Max_cycle;Signal;HPM_P1;HPM_P2
2022/12/03 00:00:46;;;;;;;41.67;22.63;;;;;;;;;;4974249;28;20051;-66
2022/12/03 00:03:12;;;;;;;39.25;21.67;;;;;;;;;;4973962;28;20133;-67
2022/12/03 00:05:38;;;;;;;37.10;21.95;;;;;;;;;;4973899;28;20159;-66
2022/12/03 00:08:04;;;;;;;36.95;21.00;;;;;;;;;;4972697;28;20399;-66
2022/12/03 00:10:30;;;;;;;38.38;20.73;;;;;;;;;;4973002;28;20038;-66
2022/12/03 00:12:56;;;;;;;35.67;20.25;;;;;;;;;;4974809;28;20026;-67
2022/12/03 00:15:22;;;;;;;37.75;21.45;;;;;;;;;;4974794;28;20023;-66
2022/12/03 00:17:48;;;;;;;38.60;20.85;;;;;;;;;;4992250;28;20489;-66
2022/12/03 00:20:19;;;;;;;38.30;21.25;;;;;;;;;;4993880;28;20057;-65
2022/12/03 00:22:45;;;;;;;39.85;22.70;;;;;;;;;;4992171;28;20487;-65
2022/12/03 00:25:11;;;;;;;42.25;23.15;;;;;;;;;;4993343;28;20551;-65
2022/12/03 00:27:37;;;;;;;40.03;22.25;;;;;;;;;;4992473;28;20061;-66
2022/12/03 00:30:04;;;;;;;39.17;20.55;;;;;;;;;;4994175;28;20098;-65
2022/12/03 00:32:30;;;;;;;38.55;20.83;;;;;;;;;;4993578;28;20030;-66
2022/12/03 00:34:56;;;;;;;42.30;23.90;;;;;;;;;;4994085;28;20043;-65
2022/12/03 00:37:22;;;;;;;39.33;21.20;;;;;;;;;;4997868;28;20026;-65
2022/12/03 00:39:48;;;;;;;39.50;21.33;;;;;;;;;;4997820;28;20442;-65
2022/12/03 00:42:14;;;;;;;37.00;19.48;;;;;;;;;;4998029;28;20031;-65
2022/12/03 00:44:42;;;;;;;39.28;22.55;;;;;;;;;;4995278;28;20037;-65
2022/12/03 00:47:08;;;;;;;39.00;21.45;;;;;;;;;;4996002;28;20033;-65
2022/12/03 00:49:34;;;;;;;42.67;23.00;;;;;;;;;;4995610;28;20025;-66
2022/12/03 00:52:01;;;;;;;39.05;21.95;;;;;;;;;;4997431;28;20033;-65
2022/12/03 00:54:27;;;;;;;38.50;21.92;;;;;;;;;;4997204;28;20390;-65
2022/12/03 00:56:53;;;;;;;39.20;21.60;;;;;;;;;;4997892;28;20444;-65
2022/12/03 00:59:18;;;;;;;36.80;20.38;;;;;;;;;;4996945;28;20041;-66
2022/12/03 01:01:45;;;;;;;39.95;22.65;;;;;;;;;;4997877;28;20058;-65
2022/12/03 01:04:11;;;;;;;37.72;19.75;;;;;;;;;;4996970;28;20431;-66
2022/12/03 01:06:36;;;;;;;39.10;22.25;;;;;;;;;;4996741;28;20061;-65
2022/12/03 01:09:03;;;;;;;39.70;20.92;;;;;;;;;;4996701;28;20026;-66
2022/12/03 01:11:38;;;;;;;40.67;20.65;;;;;;;;;;4991406;28;20030;-66
2022/12/03 01:14:13;;;;;;;38.90;22.48;;;;;;;;;;4976897;28;20089;-68
2022/12/03 01:16:40;;;;;;;40.70;22.38;;;;;;;;;;4977650;28;20022;-67
2022/12/03 01:19:06;;;;;;;36.67;20.13;;;;;;;;;;4977608;28;20077;-66
2022/12/03 01:21:33;;;;;;;35.67;20.90;;;;;;;;;;4976404;28;20446;-65
2022/12/03 01:23:59;;;;;;;41.22;21.17;;;;;;;;;;4976900;28;20158;-65
2022/12/03 01:26:25;;;;;;;40.60;20.75;;;;;;;;;;4977275;28;20054;-67
2022/12/03 01:28:51;;;;;;;42.22;21.80;;;;;;;;;;4976025;28;20039;-66
2022/12/03 01:34:02;;;;;;;35.45;19.70;;;;;;;;;;4977159;28;20112;-68
2022/12/03 01:36:28;;;;;;;35.13;19.08;;;;;;;;;;4976755;28;20027;-65
2022/12/03 01:38:54;;;;;;;40.03;22.02;;;;;;;;;;4976717;28;20026;-66
2022/12/03 01:41:21;;;;;;;37.55;20.67;;;;;;;;;;4976151;28;20495;-66
2022/12/03 01:43:48;;;;;;;36.72;18.83;;;;;;;;;;4976307;28;20038;-64
2022/12/03 01:46:16;;;;;;;38.42;19.08;;;;;;;;;;4976280;28;20053;-67
2022/12/03 01:48:42;;;;;;;36.30;19.77;;;;;;;;;;4976834;28;20030;-66
2022/12/03 01:51:08;;;;;;;42.28;20.33;;;;;;;;;;4976787;28;20034;-65
2022/12/03 01:53:34;;;;;;;36.08;20.00;;;;;;;;;;4976341;28;20035;-65
2022/12/03 01:56:00;;;;;;;34.67;18.55;;;;;;;;;;4976607;28;20497;-66
2022/12/03 01:58:27;;;;;;;38.00;19.48;;;;;;;;;;4976583;28;20023;-66
2022/12/03 02:00:53;;;;;;;34.70;17.83;;;;;;;;;;4976556;28;20034;-66
2022/12/03 02:03:24;;;;;;;34.22;18.02;;;;;;;;;;4975325;28;20532;-66
2022/12/03 02:05:50;;;;;;;33.97;17.52;;;;;;;;;;4975010;28;20038;-65
2022/12/03 02:08:35;;;;;;;34.83;18.08;;;;;;;;;;4990630;28;20418;-65
2022/12/03 02:11:03;;;;;;;37.13;19.30;;;;;;;;;;4994267;28;20169;-66
2022/12/03 02:13:29;;;;;;;35.42;18.00;;;;;;;;;;4994569;28;20030;-67
2022/12/03 02:15:55;;;;;;;33.90;17.08;;;;;;;;;;4995715;28;20121;-66
2022/12/03 02:18:22;;;;;;;31.05;17.73;;;;;;;;;;4994249;28;20031;-66
2022/12/03 02:21:11;;;;;;;36.50;19.33;;;;;;;;;;4995633;28;20487;-65
2022/12/03 02:23:43;;;;;;;35.78;18.23;;;;;;;;;;4988113;28;20034;-63
2022/12/03 02:26:10;;;;;;;37.10;17.90;;;;;;;;;;4995260;28;20368;-66
2022/12/03 02:28:37;;;;;;;35.67;17.70;;;;;;;;;;4995409;28;20026;-67
2022/12/03 02:31:04;;;;;;;37.03;19.35;;;;;;;;;;4994054;28;20025;-67
2022/12/03 02:33:30;;;;;;;40.78;22.00;;;;;;;;;;4995117;28;20023;-66
2022/12/03 02:35:56;;;;;;;43.72;21.60;;;;;;;;;;4994794;28;20041;-66
2022/12/03 02:38:27;;;;;;;40.75;21.42;;;;;;;;;;4994961;28;20038;-66
2022/12/03 02:40:55;;;;;;;39.67;20.38;;;;;;;;;;4994586;28;20022;-68
2022/12/03 02:43:21;;;;;;;42.03;20.47;;;;;;;;;;4994211;28;20038;-66
2022/12/03 02:45:49;;;;;;;42.10;20.63;;;;;;;;;;4995038;28;20475;-66
2022/12/03 02:48:15;;;;;;;40.03;20.50;;;;;;;;;;4993772;28;20018;-66
2022/12/03 02:50:43;;;;;;;42.67;20.60;;;;;;;;;;4994961;28;20156;-66
2022/12/03 02:53:13;;;;;;;35.03;18.77;;;;;;;;;;4994633;28;20026;-65
2022/12/03 02:55:40;;;;;;;40.53;21.23;;;;;;;;;;4993699;28;20038;-67
2022/12/03 02:58:06;;;;;;;42.03;21.05;;;;;;;;;;4994047;28;20113;-65
2022/12/03 03:00:34;;;;;;;41.60;19.83;;;;;;;;;;4994675;28;20399;-64
2022/12/03 03:03:00;;;;;;;44.55;21.38;;;;;;;;;;4988372;28;20066;-65
2022/12/03 03:05:26;;;;;;;42.00;20.25;;;;;;;;;;4973908;28;20018;-65
2022/12/03 03:07:52;;;;;;;41.58;21.30;;;;;;;;;;4975339;28;20027;-66
2022/12/03 03:10:21;;;;;;;37.70;20.70;;;;;;;;;;4974981;28;20033;-65
2022/12/03 03:12:47;;;;;;;41.25;20.48;;;;;;;;;;4973837;28;20026;-65
2022/12/03 03:15:13;;;;;;;39.75;20.15;;;;;;;;;;4974768;28;20423;-65
2022/12/03 03:17:40;;;;;;;40.67;20.60;;;;;;;;;;4975037;28;20487;-65
2022/12/03 03:20:06;;;;;;;39.65;18.80;;;;;;;;;;4975752;28;20050;-64
2022/12/03 03:22:37;;;;;;;40.72;20.50;;;;;;;;;;4975418;28;20023;-65
2022/12/03 03:25:04;;;;;;;43.83;19.52;;;;;;;;;;4975782;28;20027;-65
2022/12/03 03:27:30;;;;;;;39.90;20.70;;;;;;;;;;4975995;28;20023;-65
2022/12/03 03:29:57;;;;;;;33.47;18.40;;;;;;;;;;4974598;28;20027;-65
2022/12/03 03:32:23;;;;;;;39.25;20.95;;;;;;;;;;4993717;28;20440;-64
2022/12/03 03:34:49;;;;;;;40.10;22.23;;;;;;;;;;4994229;28;20035;-64
2022/12/03 03:37:15;;;;;;;40.20;19.90;;;;;;;;;;4994076;28;20030;-64
2022/12/03 03:39:42;;;;;;;44.05;21.85;;;;;;;;;;4993965;28;20026;-65
2022/12/03 03:42:08;;;;;;;42.03;21.13;;;;;;;;;;4994820;28;20033;-65
2022/12/03 03:44:34;;;;;;;42.75;21.20;;;;;;;;;;4998308;28;20027;-64
2022/12/03 03:47:15;;;;;;;40.53;20.48;;;;;;;;;;4972865;28;20058;-64
2022/12/03 03:49:42;;;;;;;43.10;20.73;;;;;;;;;;4992704;28;20033;-65
2022/12/03 03:52:10;;;;;;;41.83;22.15;;;;;;;;;;4994033;28;20076;-64
2022/12/03 03:54:36;;;;;;;40.80;22.35;;;;;;;;;;4993549;28;20026;-64
2022/12/03 03:57:02;;;;;;;45.47;22.38;;;;;;;;;;4993883;28;20166;-64
2022/12/03 03:59:29;;;;;;;45.25;23.00;;;;;;;;;;4980083;28;20034;-64
2022/12/03 04:01:55;;;;;;;48.33;23.48;;;;;;;;;;4973134;28;20037;-64
2022/12/03 04:04:22;;;;;;;46.53;22.83;;;;;;;;;;4974028;28;20396;-63
2022/12/03 04:06:48;;;;;;;47.23;22.23;;;;;;;;;;4974011;28;20506;-64
2022/12/03 04:09:14;;;;;;;49.00;24.10;;;;;;;;;;4974268;28;20027;-63
2022/12/03 04:14:25;;;;;;;51.75;22.20;;;;;;;;;;4974103;28;20046;-64
2022/12/03 04:16:51;;;;;;;56.40;24.58;;;;;;;;;;4972788;28;20038;-65
2022/12/03 04:19:17;;;;;;;43.80;21.50;;;;;;;;;;4974202;28;20027;-66
2022/12/03 04:24:27;;;;;;;43.08;23.13;;;;;;;;;;4973627;28;20034;-67
2022/12/03 04:29:38;;;;;;;47.10;21.75;;;;;;;;;;4993396;28;20084;-65
2022/12/03 04:37:33;;;;;;;51.08;25.02;;;;;;;;;;4993819;28;20049;-63
2022/12/03 04:39:59;;;;;;;42.85;21.63;;;;;;;;;;4991999;28;20471;-65
2022/12/03 04:42:25;;;;;;;45.53;21.05;;;;;;;;;;4992738;28;20034;-64
2022/12/03 04:44:51;;;;;;;43.22;21.10;;;;;;;;;;4992813;28;20440;-63
2022/12/03 04:47:18;;;;;;;43.80;21.65;;;;;;;;;;4993420;28;20026;-65
2022/12/03 04:49:45;;;;;;;45.58;22.25;;;;;;;;;;4993385;28;20047;-64
2022/12/03 04:52:12;;;;;;;49.05;24.75;;;;;;;;;;4993053;28;20027;-64
2022/12/03 04:54:38;;;;;;;43.28;21.52;;;;;;;;;;4983702;28;20565;-66
2022/12/03 04:57:05;;;;;;;47.72;25.65;;;;;;;;;;4973977;28;20023;-64
2022/12/03 04:59:31;;;;;;;47.22;23.23;;;;;;;;;;4973901;28;20035;-64
2022/12/03 05:01:57;;;;;;;51.85;24.88;;;;;;;;;;4972773;28;20125;-65
2022/12/03 05:04:23;;;;;;;50.58;22.38;;;;;;;;;;4979581;28;20114;-65
2022/12/03 05:06:49;;;;;;;45.63;23.10;;;;;;;;;;4992857;28;20058;-64
2022/12/03 05:09:15;;;;;;;45.20;20.38;;;;;;;;;;4991955;28;20033;-65
2022/12/03 05:11:42;;;;;;;44.65;23.33;;;;;;;;;;4993146;28;20018;-65
2022/12/03 05:14:08;;;;;;;45.50;20.92;;;;;;;;;;4992724;28;20031;-65
2022/12/03 05:16:35;;;;;;;47.13;23.77;;;;;;;;;;4992685;28;20026;-65
2022/12/03 05:19:01;;;;;;;45.67;22.65;;;;;;;;;;4993040;28;20038;-64
2022/12/03 05:21:27;;;;;;;49.72;22.98;;;;;;;;;;4994871;28;20022;-64
2022/12/03 05:23:53;;;;;;;47.47;21.88;;;;;;;;;;5000243;28;20026;-66
2022/12/03 05:26:19;;;;;;;45.58;21.13;;;;;;;;;;5002049;28;20496;-64
2022/12/03 05:28:45;;;;;;;43.13;19.95;;;;;;;;;;4996312;28;20022;-64
2022/12/03 05:31:11;;;;;;;43.33;21.13;;;;;;;;;;4995207;28;20446;-65
2022/12/03 05:33:37;;;;;;;48.55;25.45;;;;;;;;;;5025173;22;20052;-64
2022/12/03 05:36:03;;;;;;;45.85;22.60;;;;;;;;;;5013595;28;20108;-67
2022/12/03 05:38:29;;;;;;;44.97;23.13;;;;;;;;;;5021074;28;20108;-65
2022/12/03 05:40:55;;;;;;;42.97;20.45;;;;;;;;;;5031946;28;20116;-65
2022/12/03 05:43:21;;;;;;;42.63;21.52;;;;;;;;;;5035320;28;20029;-66
2022/12/03 05:45:47;;;;;;;44.65;22.13;;;;;;;;;;5053213;28;20096;-64
2022/12/03 05:48:14;;;;;;;41.53;20.55;;;;;;;;;;5053030;28;20021;-67
2022/12/03 05:50:44;;;;;;;48.70;23.75;;;;;;;;;;5041660;28;20028;-66
2022/12/03 05:53:11;;;;;;;48.22;22.63;;;;;;;;;;5031678;28;20469;-67
2022/12/03 05:55:37;;;;;;;39.38;20.70;;;;;;;;;;5033247;28;20025;-67
2022/12/03 05:58:03;;;;;;;41.08;20.60;;;;;;;;;;5033320;28;20457;-66
2022/12/03 06:00:31;;;;;;;43.35;20.67;;;;;;;;;;5033132;28;20030;-66
2022/12/03 06:02:57;;;;;;;42.10;21.27;;;;;;;;;;5032980;28;20014;-68
2022/12/03 06:05:23;;;;;;;39.28;20.10;;;;;;;;;;5039222;28;20025;-68
2022/12/03 06:07:50;;;;;;;38.97;20.27;;;;;;;;;;5052672;28;20044;-67
2022/12/03 06:10:17;;;;;;;39.75;21.08;;;;;;;;;;5051615;28;20025;-67
2022/12/03 06:12:43;;;;;;;38.72;20.40;;;;;;;;;;5051284;28;20119;-67
2022/12/03 06:15:10;;;;;;;44.17;20.60;;;;;;;;;;5051316;28;20072;-67
2022/12/03 06:17:36;;;;;;;42.10;21.63;;;;;;;;;;5052043;28;20036;-68
2022/12/03 06:20:02;;;;;;;39.42;19.60;;;;;;;;;;5052703;28;20033;-67
2022/12/03 06:22:28;;;;;;;38.83;19.17;;;;;;;;;;5052509;28;20442;-67
2022/12/03 06:24:54;;;;;;;41.53;21.88;;;;;;;;;;5052030;28;20037;-68
2022/12/03 06:27:20;;;;;;;37.13;20.08;;;;;;;;;;5052462;28;20021;-68
2022/12/03 06:29:46;;;;;;;39.00;20.63;;;;;;;;;;5052498;28;20032;-68
2022/12/03 06:32:12;;;;;;;37.53;20.30;;;;;;;;;;5042235;28;20045;-67
2022/12/03 06:34:38;;;;;;;42.67;22.80;;;;;;;;;;5030662;28;20417;-68
2022/12/03 06:37:04;;;;;;;39.75;21.60;;;;;;;;;;5032517;28;20029;-68
2022/12/03 06:39:30;;;;;;;42.60;21.70;;;;;;;;;;5038899;28;20025;-68
2022/12/03 06:41:56;;;;;;;39.35;19.95;;;;;;;;;;5052294;28;20075;-69
2022/12/03 06:44:22;;;;;;;38.50;20.88;;;;;;;;;;5050424;28;20025;-67
2022/12/03 06:46:48;;;;;;;42.47;21.50;;;;;;;;;;5037050;28;20053;-68
2022/12/03 06:49:14;;;;;;;35.22;18.52;;;;;;;;;;5031155;28;20103;-68
2022/12/03 06:51:40;;;;;;;38.65;21.10;;;;;;;;;;5030897;28;20021;-68
2022/12/03 06:54:06;;;;;;;41.35;21.63;;;;;;;;;;5032153;28;20094;-66
2022/12/03 06:56:32;;;;;;;39.05;21.38;;;;;;;;;;5032229;28;20033;-67
2022/12/03 06:58:58;;;;;;;39.25;18.95;;;;;;;;;;5051602;28;20040;-67
2022/12/03 07:01:24;;;;;;;41.03;20.90;;;;;;;;;;5059925;28;20092;-69
2022/12/03 07:03:51;;;;;;;46.08;22.25;;;;;;;;;;5056860;28;20084;-67
2022/12/03 07:06:17;;;;;;;43.33;22.13;;;;;;;;;;5058810;28;20092;-68
2022/12/03 07:08:43;;;;;;;41.38;21.30;;;;;;;;;;5059331;28;20057;-69
2022/12/03 07:13:55;;;;;;;48.40;22.02;;;;;;;;;;5043419;28;20044;-67
2022/12/03 07:16:21;;;;;;;42.70;22.08;;;;;;;;;;5032362;28;20029;-68
2022/12/03 07:18:47;;;;;;;42.50;22.52;;;;;;;;;;5030625;28;20021;-66
2022/12/03 07:21:13;;;;;;;41.22;21.98;;;;;;;;;;5031731;28;20432;-67
2022/12/03 07:23:39;;;;;;;42.78;21.40;;;;;;;;;;5031565;28;20072;-68
2022/12/03 07:26:05;;;;;;;46.33;22.83;;;;;;;;;;5032024;28;20025;-66
2022/12/03 07:28:31;;;;;;;43.70;21.13;;;;;;;;;;5030298;28;20440;-68
2022/12/03 07:30:57;;;;;;;41.92;20.35;;;;;;;;;;5031786;28;20047;-68
2022/12/03 07:33:23;;;;;;;42.40;22.58;;;;;;;;;;5031061;28;20067;-69
2022/12/03 07:35:49;;;;;;;47.15;21.60;;;;;;;;;;5031927;28;20029;-68
2022/12/03 07:38:15;;;;;;;44.95;22.25;;;;;;;;;;5030917;28;20025;-68
2022/12/03 07:40:41;;;;;;;39.80;21.58;;;;;;;;;;5032643;28;20029;-67
2022/12/03 07:43:07;;;;;;;43.83;20.85;;;;;;;;;;5048259;28;20083;-70
2022/12/03 07:45:33;;;;;;;46.03;22.73;;;;;;;;;;5054245;28;20512;-70
2022/12/03 07:47:59;;;;;;;44.22;21.48;;;;;;;;;;5052477;28;20052;-69
2022/12/03 07:50:27;;;;;;;45.22;22.00;;;;;;;;;;5050056;28;20025;-69
2022/12/03 07:52:53;;;;;;;45.10;21.80;;;;;;;;;;5049849;28;20031;-69
2022/12/03 07:55:20;;;;;;;40.95;21.05;;;;;;;;;;5051098;28;20021;-70
2022/12/03 07:57:46;;;;;;;47.33;22.63;;;;;;;;;;5050876;28;20048;-69
2022/12/03 08:00:12;;;;;;;44.30;21.27;;;;;;;;;;5049613;28;20111;-69
2022/12/03 08:02:38;;;;;;;42.60;22.13;;;;;;;;;;5050887;28;20033;-69
2022/12/03 08:05:04;;;;;;;42.60;20.88;;;;;;;;;;5049645;28;20025;-70
2022/12/03 08:07:30;;;;;;;46.88;21.58;;;;;;;;;;5051169;28;20059;-68
2022/12/03 08:09:56;;;;;;;42.97;23.38;;;;;;;;;;5048936;28;20072;-69
2022/12/03 08:12:38;;;;;;;45.47;21.85;;;;;;;;;;5050752;28;20021;-69
2022/12/03 08:15:09;;;;;;;45.50;22.02;;;;;;;;;;5049540;28;20507;-69
2022/12/03 08:17:35;;;;;;;45.35;22.25;;;;;;;;;;5050383;28;20032;-67
2022/12/03 08:20:01;;;;;;;39.47;22.13;;;;;;;;;;5049133;28;20029;-69
2022/12/03 08:22:29;;;;;;;43.38;21.98;;;;;;;;;;5049555;28;20124;-68
2022/12/03 08:24:55;;;;;;;40.97;20.33;;;;;;;;;;5048382;28;20025;-67
2022/12/03 08:27:21;;;;;;;40.08;20.52;;;;;;;;;;5049941;28;20528;-67
2022/12/03 08:29:47;;;;;;;44.85;23.13;;;;;;;;;;5050253;28;20021;-66
2022/12/03 08:32:13;;;;;;;43.97;21.17;;;;;;;;;;5049794;28;20028;-63
2022/12/03 08:34:40;;;;;;;43.22;22.02;;;;;;;;;;5049667;28;20057;-64
2022/12/03 08:37:10;;;;;;;40.15;20.23;;;;;;;;;;5044176;28;20084;-62
2022/12/03 08:39:41;;;;;;;44.45;22.85;;;;;;;;;;5030004;28;20030;-62
2022/12/03 08:44:57;;;;;;;42.97;22.13;;;;;;;;;;5029773;28;20453;-63
2022/12/03 08:47:24;;;;;;;41.58;21.45;;;;;;;;;;5029598;28;20083;-64
2022/12/03 08:49:58;;;;;;;43.67;21.80;;;;;;;;;;5028481;28;20017;-63
2022/12/03 08:52:29;;;;;;;41.60;20.88;;;;;;;;;;5029956;28;20117;-63
2022/12/03 08:54:56;;;;;;;45.63;22.70;;;;;;;;;;5029469;28;20084;-62
2022/12/03 08:57:24;;;;;;;42.35;22.60;;;;;;;;;;5034174;28;20080;-67
2022/12/03 08:59:50;;;;;;;;;;;;;;;;;;5034430;28;20366;-66
2022/12/03 09:02:24;;;;;;;42.10;22.63;;;;;;;;;;5033930;28;19909;-66
2022/12/03 09:04:51;;;;;;;41.30;21.48;;;;;;;;;;5035395;28;20120;-66
2022/12/03 09:07:17;;;;;;;44.58;24.95;;;;;;;;;;5053747;28;20021;-65
2022/12/03 09:09:43;;;;;;;44.53;24.20;;;;;;;;;;5053587;28;20116;-64
2022/12/03 09:12:09;;;;;;;47.50;23.95;;;;;;;;;;5053691;28;20097;-65
2022/12/03 09:14:35;;;;;;;43.97;20.95;;;;;;;;;;5053599;28;20369;-66
2022/12/03 09:17:01;;;;;;;47.60;24.95;;;;;;;;;;5054114;28;20500;-65
2022/12/03 09:19:29;;;;;;;44.33;22.25;;;;;;;;;;5046143;28;20156;-66
2022/12/03 09:21:56;;;;;;;43.42;22.65;;;;;;;;;;5034119;28;20529;-66
2022/12/03 09:24:22;;;;;;;51.72;25.10;;;;;;;;;;5032474;28;20398;-65
2022/12/03 09:26:48;;;;;;;42.38;21.92;;;;;;;;;;5033757;28;20022;-66
2022/12/03 09:29:14;;;;;;;42.75;24.70;;;;;;;;;;5032364;28;20021;-66
2022/12/03 09:31:40;;;;;;;44.40;23.55;;;;;;;;;;5033427;28;20022;-66
2022/12/03 09:34:06;;;;;;;42.38;20.50;;;;;;;;;;5048761;28;20120;-66
2022/12/03 09:36:33;;;;;;;44.60;21.98;;;;;;;;;;5053070;28;20037;-67
2022/12/03 09:38:59;;;;;;;43.83;23.00;;;;;;;;;;5053356;28;20021;-67
2022/12/03 09:41:25;;;;;;;43.67;22.90;;;;;;;;;;5052072;28;20037;-67
2022/12/03 09:43:51;;;;;;;44.80;23.00;;;;;;;;;;5052756;28;20104;-67
2022/12/03 09:46:18;;;;;;;40.80;22.17;;;;;;;;;;5053025;28;20405;-65
2022/12/03 09:48:44;;;;;;;46.85;23.67;;;;;;;;;;5053287;28;20044;-67
2022/12/03 09:51:10;;;;;;;43.88;21.92;;;;;;;;;;5052992;28;20024;-65
2022/12/03 09:53:36;;;;;;;40.58;21.33;;;;;;;;;;5052656;28;20025;-67
2022/12/03 09:56:02;;;;;;;52.42;23.48;;;;;;;;;;5052888;28;20358;-67
2022/12/03 09:58:28;;;;;;;45.05;21.85;;;;;;;;;;5052655;28;20109;-67
2022/12/03 10:00:54;;;;;;;45.53;24.13;;;;;;;;;;5052756;28;20032;-68
2022/12/03 10:03:22;;;;;;;43.17;23.48;;;;;;;;;;5052404;28;20035;-67
2022/12/03 10:05:49;;;;;;;47.03;24.10;;;;;;;;;;5049905;28;20516;-66
2022/12/03 10:08:19;;;;;;;45.20;22.55;;;;;;;;;;5042430;28;20394;-68
2022/12/03 10:10:46;;;;;;;47.95;23.42;;;;;;;;;;5032675;28;20331;-68
2022/12/03 10:13:14;;;;;;;43.45;25.08;;;;;;;;;;5032132;28;20025;-67
2022/12/03 10:15:40;;;;;;;46.75;25.33;;;;;;;;;;5032333;28;20068;-67
2022/12/03 10:18:20;;;;;;;45.30;23.85;;;;;;;;;;5032279;28;20025;-67
2022/12/03 10:20:46;;;;;;;40.35;20.42;;;;;;;;;;5044559;28;20523;-65
2022/12/03 10:23:22;;;;;;;44.85;21.85;;;;;;;;;;5050817;28;20028;-66
2022/12/03 10:26:04;;;;;;;41.33;21.92;;;;;;;;;;5054815;28;20024;-66
2022/12/03 10:28:35;;;;;;;42.60;21.38;;;;;;;;;;5058023;28;20395;-66
2022/12/03 10:31:02;;;;;;;40.05;21.42;;;;;;;;;;5056018;28;20036;-65
2022/12/03 10:33:33;;;;;;;40.50;21.38;;;;;;;;;;5052485;28;20400;-68
2022/12/03 10:36:28;;;;;;;44.33;22.58;;;;;;;;;;5051766;28;20017;-64
2022/12/03 10:39:14;;;;;;;42.85;21.75;;;;;;;;;;5016029;28;20045;-66
2022/12/03 10:41:40;;;;;;;46.25;22.58;;;;;;;;;;5032268;28;20096;-64
2022/12/03 10:44:09;;;;;;;38.67;20.40;;;;;;;;;;5031814;28;20497;-65
2022/12/03 10:46:35;;;;;;;40.63;20.50;;;;;;;;;;5032092;28;20391;-66
2022/12/03 10:49:09;;;;;;;41.33;20.08;;;;;;;;;;5032083;28;20025;-67
2022/12/03 10:51:35;;;;;;;42.15;21.35;;;;;;;;;;5030767;28;20029;-65
2022/12/03 10:54:02;;;;;;;44.83;22.42;;;;;;;;;;5031232;28;20029;-61
2022/12/03 10:56:28;;;;;;;38.92;19.60;;;;;;;;;;5031865;28;20025;-66
2022/12/03 10:58:57;;;;;;;43.97;21.73;;;;;;;;;;5031814;28;20029;-65
2022/12/03 11:01:24;;;;;;;41.50;19.73;;;;;;;;;;5031354;28;20033;-66
2022/12/03 11:03:50;;;;;;;41.85;20.08;;;;;;;;;;5030994;28;20536;-66
2022/12/03 11:06:18;;;;;;;42.45;19.95;;;;;;;;;;5047959;28;20029;-65
2022/12/03 11:08:46;;;;;;;43.58;20.42;;;;;;;;;;5051439;28;20477;-65
2022/12/03 11:11:32;;;;;;;38.83;20.13;;;;;;;;;;4697835;28;10000208;-66
2022/12/03 11:13:59;;;;;;;40.53;19.48;;;;;;;;;;5045079;28;20116;-66
2022/12/03 11:16:40;;;;;;;42.75;20.30;;;;;;;;;;5028889;28;20021;-67
2022/12/03 11:19:12;;;;;;;38.05;18.90;;;;;;;;;;5027911;28;20041;-67
2022/12/03 11:21:57;;;;;;;38.13;19.20;;;;;;;;;;5033150;28;20421;-65
2022/12/03 11:24:23;;;;;;;47.47;20.63;;;;;;;;;;5047751;28;20031;-66
2022/12/03 11:26:49;;;;;;;40.58;19.15;;;;;;;;;;5044352;28;21626;-67
2022/12/03 11:29:15;;;;;;;35.22;19.80;;;;;;;;;;5044099;28;20092;-66
2022/12/03 11:31:45;;;;;;;42.13;18.00;;;;;;;;;;5046414;28;20546;-67
2022/12/03 11:34:18;;;;;;;38.15;19.55;;;;;;;;;;5050460;22;20051;-63
2022/12/03 11:37:17;;;;;;;36.67;18.42;;;;;;;;;;4989893;28;20462;-64
2022/12/03 11:39:54;;;;;;;38.78;19.20;;;;;;;;;;4946648;28;20026;-66
2022/12/03 11:42:26;;;;;;;42.00;21.50;;;;;;;;;;4990517;28;20054;-64
2022/12/03 11:45:04;;;;;;;42.72;19.20;;;;;;;;;;5000975;28;20041;-65
2022/12/03 11:47:30;;;;;;;;;;;;;;;;;;5010474;28;20026;-66
2022/12/03 11:49:57;;;;;;;37.22;18.83;;;;;;;;;;4658723;28;10000252;-65
2022/12/03 11:52:39;;;;;;;43.05;20.05;;;;;;;;;;4989086;28;20058;-65
2022/12/03 11:55:16;;;;;;;46.88;22.30;;;;;;;;;;4989697;28;20027;-66
2022/12/03 11:57:43;;;;;;;41.60;20.95;;;;;;;;;;4988529;28;20133;-66
2022/12/03 12:00:09;;;;;;;45.33;23.10;;;;;;;;;;4990676;28;20125;-68
2022/12/03 12:02:35;;;;;;;43.65;20.42;;;;;;;;;;5009400;28;20053;-65
2022/12/03 12:05:14;;;;;;;37.95;20.55;;;;;;;;;;5009340;28;20030;-64
2022/12/03 12:07:40;;;;;;;44.55;20.95;;;;;;;;;;4992748;28;20112;-66
2022/12/03 12:10:07;;;;;;;40.58;21.38;;;;;;;;;;5008305;28;20755;-65
2022/12/03 12:12:38;;;;;;;39.05;20.13;;;;;;;;;;5007894;28;20053;-65
2022/12/03 12:15:22;;;;;;;44.72;19.45;;;;;;;;;;5009749;28;20026;-66
2022/12/03 12:17:48;;;;;;;52.70;24.92;;;;;;;;;;4995831;28;20152;-65
2022/12/03 12:20:27;;;;;;;43.70;22.33;;;;;;;;;;4988470;28;20026;-64
2022/12/03 12:22:54;;;;;;;42.58;22.50;;;;;;;;;;4989828;28;20029;-63
2022/12/03 12:25:29;;;;;;;45.35;22.98;;;;;;;;;;4989512;28;20376;-64
2022/12/03 12:27:56;;;;;;;42.83;22.13;;;;;;;;;;4989773;28;20038;-63
2022/12/03 12:30:22;;;;;;;41.70;21.92;;;;;;;;;;4989236;28;20030;-64
2022/12/03 12:32:53;;;;;;;46.78;22.58;;;;;;;;;;4990889;28;20042;-66
2022/12/03 12:35:26;;;;;;;43.70;21.67;;;;;;;;;;4991524;28;20034;-65
2022/12/03 12:37:52;;;;;;;43.97;23.58;;;;;;;;;;4992233;28;20037;-65
2022/12/03 12:40:19;;;;;;;46.05;21.38;;;;;;;;;;4991939;28;20033;-65
2022/12/03 12:42:49;;;;;;;43.80;22.83;;;;;;;;;;4992106;28;20022;-66
2022/12/03 12:45:22;;;;;;;44.58;22.45;;;;;;;;;;4990711;28;20019;-66
2022/12/03 12:47:48;;;;;;;43.63;23.08;;;;;;;;;;4998410;28;20122;-65
2022/12/03 12:50:15;;;;;;;42.13;21.77;;;;;;;;;;4997821;28;20018;-66
2022/12/03 12:52:49;;;;;;;41.28;22.50;;;;;;;;;;4993009;28;20026;-66
2022/12/03 12:55:16;;;;;;;46.17;22.88;;;;;;;;;;4993226;28;20380;-66
2022/12/03 12:57:43;;;;;;;45.72;22.50;;;;;;;;;;4656358;28;10000413;-65
2022/12/03 13:00:20;;;;;;;42.47;21.95;;;;;;;;;;4991495;28;20342;-68
2022/12/03 13:02:50;;;;;;;39.45;20.83;;;;;;;;;;4991748;28;20023;-64
2022/12/03 13:05:17;;;;;;;40.42;20.48;;;;;;;;;;4990711;28;20058;-64
2022/12/03 13:07:43;;;;;;;44.97;23.00;;;;;;;;;;4990280;28;20088;-65
2022/12/03 13:10:32;;;;;;;42.15;22.48;;;;;;;;;;4990923;28;20026;-65
2022/12/03 13:13:01;;;;;;;46.88;23.67;;;;;;;;;;4990036;28;20022;-68
2022/12/03 13:15:46;;;;;;;40.50;21.52;;;;;;;;;;4991823;28;20034;-64
2022/12/03 13:18:24;;;;;;;46.08;21.95;;;;;;;;;;4992429;28;20092;-65
2022/12/03 13:20:51;;;;;;;38.65;19.50;;;;;;;;;;4994120;28;20023;-68
2022/12/03 13:23:37;;;;;;;43.72;21.17;;;;;;;;;;4992160;28;20431;-67
2022/12/03 13:26:12;;;;;;;41.83;21.25;;;;;;;;;;4992399;28;20034;-66
2022/12/03 13:28:40;;;;;;;40.75;20.38;;;;;;;;;;4991820;28;20355;-66
2022/12/03 13:31:17;;;;;;;46.25;22.33;;;;;;;;;;4992955;28;20029;-66
2022/12/03 13:33:43;;;;;;;46.88;22.33;;;;;;;;;;4992173;28;20030;-67
2022/12/03 13:36:14;;;;;;;47.80;22.58;;;;;;;;;;4991479;28;20482;-67
2022/12/03 13:38:40;;;;;;;43.20;23.23;;;;;;;;;;4999073;28;20040;-67
2022/12/03 13:42:37;;;;;;;48.00;22.38;;;;;;;;;;5010988;28;20022;-67
2022/12/03 13:43:54;;;;;;;47.83;25.48;;;;;;;;;;5015188;28;20096;-68
2022/12/03 13:46:20;;;;;;;44.00;21.45;;;;;;;;;;5014048;28;20018;-67
2022/12/03 13:48:46;;;;;;;42.10;23.25;;;;;;;;;;5016124;28;20028;-66
2022/12/03 13:51:23;;;;;;;48.60;24.70;;;;;;;;;;5014101;28;20114;-66
2022/12/03 13:53:49;;;;;;;44.30;22.52;;;;;;;;;;4974325;28;20034;-67
2022/12/03 13:56:31;;;;;;;45.00;23.90;;;;;;;;;;4976218;28;20030;-66
2022/12/03 13:58:59;;;;;;;46.05;22.80;;;;;;;;;;4976419;28;20027;-65
2022/12/03 14:01:25;;;;;;;45.78;22.67;;;;;;;;;;4974753;28;20513;-65
2022/12/03 14:03:51;;;;;;;46.28;24.70;;;;;;;;;;4974693;28;20475;-65
2022/12/03 14:06:17;;;;;;;45.83;23.60;;;;;;;;;;4986176;28;20483;-65
2022/12/03 14:08:44;;;;;;;44.13;23.92;;;;;;;;;;4994460;28;20026;-66
2022/12/03 14:12:24;;;;;;;44.08;21.30;;;;;;;;;;4995472;28;20037;-66
2022/12/03 14:13:56;;;;;;;48.60;22.65;;;;;;;;;;4995351;28;20035;-67
2022/12/03 14:16:22;;;;;;;44.63;23.33;;;;;;;;;;4995834;28;20030;-66
2022/12/03 14:18:48;;;;;;;43.63;23.08;;;;;;;;;;4995468;28;20026;-66
2022/12/03 14:21:14;;;;;;;46.58;24.05;;;;;;;;;;5010648;28;20030;-68
2022/12/03 14:23:40;;;;;;;45.80;23.75;;;;;;;;;;5014613;28;20022;-67
2022/12/03 14:26:06;;;;;;;48.55;23.92;;;;;;;;;;5013824;28;20021;-66
2022/12/03 14:28:33;;;;;;;48.45;25.38;;;;;;;;;;5014888;28;20076;-67
2022/12/03 14:30:59;;;;;;;49.72;25.08;;;;;;;;;;5014762;28;20026;-65
2022/12/03 14:33:25;;;;;;;49.40;25.00;;;;;;;;;;5013706;28;20474;-66
2022/12/03 14:35:55;;;;;;;46.95;23.17;;;;;;;;;;4994869;28;20026;-68
2022/12/03 14:38:21;;;;;;;47.97;24.15;;;;;;;;;;4993989;28;20057;-65
2022/12/03 14:40:47;;;;;;;52.47;26.58;;;;;;;;;;4993542;28;20025;-66
2022/12/03 14:43:13;;;;;;;44.97;24.65;;;;;;;;;;4994215;28;20019;-66